< Typhoon 201418 2014 Season Typhoon 201420 >
Typhoon 201419 (VONGFONG)
General InformationTrack Information on Google MapsDetailed Wind InformationForecast History on Google MapsAccess Analytics MapList of All Images || NewsDisaster Info.WeblogTrackbackTyphoon FrontTwiphoonTyphoon Now!Typhoon ImaginationDisaster Info. XMLResourceGoogle EarthGE AnimationAtom FeedGeoJSON
Detalied Best Track (Time Zone = UTC)
Year Month Day Hour Lat. Long. Pressure (hPa) Wind (kt) Class Image Chart
2014 10 2 12 7.3 162.1 1006 0 2 Image Chart
2014 10 2 18 8.0 160.8 1004 0 2 Image Chart
2014 10 3 00 8.4 159.9 1004 0 2 Image Chart
2014 10 3 06 8.5 158.7 1004 0 2 Image Chart
2014 10 3 12 8.7 157.5 1004 0 2 Image Chart
2014 10 3 18 9.0 156.2 1000 35 3 Image Chart
2014 10 4 00 9.6 155.1 996 40 3 Image Chart
2014 10 4 06 10.4 154.0 990 45 3 Image Chart
2014 10 4 12 11.1 152.9 985 50 4 Image Chart
2014 10 4 18 12.0 151.5 980 55 4 Image Chart
2014 10 5 00 12.5 150.0 975 60 4 Image Chart
2014 10 5 06 13.3 148.5 975 60 4 Image Chart
2014 10 5 12 13.8 146.9 975 60 4 Image Chart
2014 10 5 18 14.5 145.1 975 60 4 Image Chart
2014 10 6 00 15.1 143.3 975 60 4 Image Chart
2014 10 6 06 15.8 141.3 975 60 4 Image Chart
2014 10 6 12 16.5 139.7 975 60 4 Image Chart
2014 10 6 18 16.8 138.1 965 70 5 Image Chart
2014 10 7 00 16.9 136.5 950 80 5 Image Chart
2014 10 7 06 17.3 135.4 935 90 5 Image Chart
2014 10 7 12 17.4 134.2 915 105 5 Image Chart
2014 10 7 18 17.7 133.2 900 115 5 Image Chart
2014 10 8 00 17.9 132.2 900 115 5 Image Chart
2014 10 8 06 18.2 131.5 900 115 5 Image Chart
2014 10 8 12 18.4 131.0 900 115 5 Image Chart
2014 10 8 18 18.8 130.5 905 110 5 Image Chart
2014 10 9 00 19.2 130.0 905 110 5 Image Chart
2014 10 9 06 19.7 129.9 915 105 5 Image Chart
2014 10 9 12 20.2 129.6 925 100 5 Image Chart
2014 10 9 18 20.8 129.4 925 100 5 Image Chart
2014 10 10 00 21.4 129.4 925 100 5 Image Chart
2014 10 10 06 22.2 129.3 925 100 5 Image Chart
2014 10 10 12 23.1 129.2 935 95 5 Image Chart
2014 10 10 18 23.8 129.0 940 90 5 Image Chart
2014 10 10 21 24.1 128.9 940 90 5 Image Chart
2014 10 11 00 24.4 128.8 940 90 5 Image Chart
2014 10 11 03 24.9 128.7 945 85 5 Image Chart
2014 10 11 06 25.3 128.6 945 85 5 Image Chart
2014 10 11 09 25.6 128.4 945 85 5 Image Chart
2014 10 11 12 26.1 128.1 945 85 5 Image Chart
2014 10 11 15 26.4 128.0 950 80 5 Image Chart
2014 10 11 18 26.9 127.7 950 80 5 Image Chart
2014 10 11 21 27.4 127.5 950 80 5 Image Chart
2014 10 12 00 27.7 127.4 965 70 5 Image Chart
2014 10 12 03 28.1 127.1 965 70 5 Image Chart
2014 10 12 06 28.8 127.1 970 65 5 Image Chart
2014 10 12 09 29.3 127.3 970 65 5 Image Chart
2014 10 12 12 29.7 127.6 970 65 5 Image Chart
2014 10 12 15 30.2 128.2 970 65 5 Image Chart
2014 10 12 18 30.6 129.0 970 65 5 Image Chart
2014 10 12 21 30.9 129.6 970 65 5 Image Chart
2014 10 12 23 31.1 130.0 970 65 5 Image Chart
2014 10 13 00 31.3 130.3 975 60 4 Image Chart
2014 10 13 03 32.2 131.6 975 60 4 Image Chart
2014 10 13 05 32.9 132.4 975 60 4 Image Chart
2014 10 13 06 33.1 133.0 975 60 4 Image Chart
2014 10 13 09 33.9 134.2 980 55 4 Image Chart
2014 10 13 10 34.2 134.6 980 55 4 Image Chart
2014 10 13 11 34.4 135.1 985 50 4 Image Chart
2014 10 13 12 34.5 136.0 985 50 4 Image Chart
2014 10 13 15 35.6 136.9 985 50 4 Image Chart
2014 10 13 18 36.5 139.7 985 50 4 Image Chart
2014 10 13 21 38.0 141.5 980 55 4 Image Chart
2014 10 14 00 39.0 143.2 980 0 6 Image Chart
2014 10 14 06 40.5 146.0 980 0 6 Image Chart
2014 10 14 12 42.0 149.4 980 0 6 Image Chart
2014 10 14 18 44.1 153.1 980 0 6 Image Chart
2014 10 15 00 46.5 156.2 980 0 6 Image Chart
2014 10 15 06 48.4 160.4 980 0 6 Image Chart
2014 10 15 12 49.9 164.5 980 0 6 Image Chart
2014 10 15 18 51.2 169.3 980 0 6 Image Chart
2014 10 16 00 51.7 173.4 980 0 6 Image Chart
2014 10 16 06 51.5 177.8 980 0 6 Image Chart
2014 10 16 12 51.0 183.0 980 0 6 Image Chart
Japan Meteorological Agency Best Track Data | Correction Date : 2014-11-21
< Typhoon 201418 2014 Season Typhoon 201420 >

Help